sensor_id;sensor_type;location;lat;lon;timestamp;pressure;altitude;pressure_sealevel;temperature;humidity
65227;BME280;51805;49.012;12.104;2022-11-02T00:00:43;98406.31;;;20.74;64.65
65227;BME280;51805;49.012;12.104;2022-11-02T00:03:09;98403.06;;;20.72;64.79
65227;BME280;51805;49.012;12.104;2022-11-02T00:05:34;98399.28;;;20.73;64.53
65227;BME280;51805;49.012;12.104;2022-11-02T00:07:59;98406.31;;;20.74;64.75
65227;BME280;51805;49.012;12.104;2022-11-02T00:10:24;98405.75;;;20.72;65.06
65227;BME280;51805;49.012;12.104;2022-11-02T00:12:50;98405.75;;;20.72;64.55
65227;BME280;51805;49.012;12.104;2022-11-02T00:15:16;98416.56;;;20.72;64.66
65227;BME280;51805;49.012;12.104;2022-11-02T00:17:44;98421.13;;;20.71;64.65
65227;BME280;51805;49.012;12.104;2022-11-02T00:20:11;98421.44;;;20.75;64.74
65227;BME280;51805;49.012;12.104;2022-11-02T00:22:38;98418.69;;;20.70;64.72
65227;BME280;51805;49.012;12.104;2022-11-02T00:25:05;98424.16;;;20.75;64.61
65227;BME280;51805;49.012;12.104;2022-11-02T00:27:32;98419.78;;;20.69;64.69
65227;BME280;51805;49.012;12.104;2022-11-02T00:29:58;98428.72;;;20.74;64.61
65227;BME280;51805;49.012;12.104;2022-11-02T00:32:25;98439.53;;;20.74;64.72
65227;BME280;51805;49.012;12.104;2022-11-02T00:34:50;98429.75;;;20.68;64.56
65227;BME280;51805;49.012;12.104;2022-11-02T00:37:15;98435.41;;;20.67;64.69
65227;BME280;51805;49.012;12.104;2022-11-02T00:39:40;98452.25;;;20.74;64.52
65227;BME280;51805;49.012;12.104;2022-11-02T00:42:06;98444.91;;;20.69;64.43
65227;BME280;51805;49.012;12.104;2022-11-02T00:44:31;98446.78;;;20.69;64.47
65227;BME280;51805;49.012;12.104;2022-11-02T00:46:56;98444.66;;;20.71;64.76
65227;BME280;51805;49.012;12.104;2022-11-02T00:49:22;98446.28;;;20.72;64.59
65227;BME280;51805;49.012;12.104;2022-11-02T00:51:47;98432.72;;;20.67;64.63
65227;BME280;51805;49.012;12.104;2022-11-02T00:54:12;98448.41;;;20.70;64.46
65227;BME280;51805;49.012;12.104;2022-11-02T00:56:37;98438.41;;;20.70;64.32
65227;BME280;51805;49.012;12.104;2022-11-02T00:59:03;98446.28;;;20.72;64.40
65227;BME280;51805;49.012;12.104;2022-11-02T01:01:28;98448.41;;;20.70;64.44
65227;BME280;51805;49.012;12.104;2022-11-02T01:03:55;98437.34;;;20.71;64.38
65227;BME280;51805;49.012;12.104;2022-11-02T01:06:21;98442.47;;;20.68;64.37
65227;BME280;51805;49.012;12.104;2022-11-02T01:08:46;98432.44;;;20.68;64.46
65227;BME280;51805;49.012;12.104;2022-11-02T01:11:17;98432.19;;;20.70;64.36
65227;BME280;51805;49.012;12.104;2022-11-02T01:13:42;98426.00;;;20.69;64.38
65227;BME280;51805;49.012;12.104;2022-11-02T01:16:08;98423.56;;;20.68;64.22
65227;BME280;51805;49.012;12.104;2022-11-02T01:18:34;98432.72;;;20.67;64.26
65227;BME280;51805;49.012;12.104;2022-11-02T01:20:59;98433.84;;;20.71;64.31
65227;BME280;51805;49.012;12.104;2022-11-02T01:23:25;98433.84;;;20.71;64.22
65227;BME280;51805;49.012;12.104;2022-11-02T01:25:50;98433.03;;;20.70;64.25
65227;BME280;51805;49.012;12.104;2022-11-02T01:28:16;98425.19;;;20.69;64.13
65227;BME280;51805;49.012;12.104;2022-11-02T01:30:41;98421.13;;;20.66;64.04
65227;BME280;51805;49.012;12.104;2022-11-02T01:33:07;98425.19;;;20.69;64.30
65227;BME280;51805;49.012;12.104;2022-11-02T01:35:32;98418.69;;;20.70;64.29
65227;BME280;51805;49.012;12.104;2022-11-02T01:37:57;98412.50;;;20.69;64.22
65227;BME280;51805;49.012;12.104;2022-11-02T01:40:23;98406.78;;;20.66;63.93
65227;BME280;51805;49.012;12.104;2022-11-02T01:42:48;98414.38;;;20.69;64.21
65227;BME280;51805;49.012;12.104;2022-11-02T01:45:13;98426.78;;;20.70;64.21
65227;BME280;51805;49.012;12.104;2022-11-02T01:47:41;98419.78;;;20.69;64.07
65227;BME280;51805;49.012;12.104;2022-11-02T01:50:12;98425.69;;;20.66;64.15
65227;BME280;51805;49.012;12.104;2022-11-02T01:52:38;98434.34;;;20.68;64.00
65227;BME280;51805;49.012;12.104;2022-11-02T01:55:23;98432.44;;;20.68;63.99
65227;BME280;51805;49.012;12.104;2022-11-02T01:57:56;98428.97;;;20.68;63.96
65227;BME280;51805;49.012;12.104;2022-11-02T02:00:22;98434.63;;;20.66;63.96
65227;BME280;51805;49.012;12.104;2022-11-02T02:02:54;98434.06;;;20.64;64.07
65227;BME280;51805;49.012;12.104;2022-11-02T02:05:21;98427.81;;;20.64;64.16
65227;BME280;51805;49.012;12.104;2022-11-02T02:07:49;98417.03;;;20.64;64.00
65227;BME280;51805;49.012;12.104;2022-11-02T02:10:15;98417.84;;;20.64;64.01
65227;BME280;51805;49.012;12.104;2022-11-02T02:12:41;98431.09;;;20.66;64.09
65227;BME280;51805;49.012;12.104;2022-11-02T02:15:08;98431.91;;;20.66;63.99
65227;BME280;51805;49.012;12.104;2022-11-02T02:17:49;98427.31;;;20.67;63.96
65227;BME280;51805;49.012;12.104;2022-11-02T02:20:41;98427.81;;;20.64;63.83
65227;BME280;51805;49.012;12.104;2022-11-02T02:34:54;98438.38;;;20.65;63.72
65227;BME280;51805;49.012;12.104;2022-11-02T02:37:39;98442.41;;;20.63;63.89
65227;BME280;51805;49.012;12.104;2022-11-02T02:40:13;98441.28;;;20.59;63.88
65227;BME280;51805;49.012;12.104;2022-11-02T02:42:50;98445.09;;;20.63;63.94
65227;BME280;51805;49.012;12.104;2022-11-02T02:45:39;98448.38;;;20.65;63.74
65227;BME280;51805;49.012;12.104;2022-11-02T02:48:20;98447.81;;;20.63;63.78
65227;BME280;51805;49.012;12.104;2022-11-02T02:50:49;98446.97;;;20.62;63.73
65227;BME280;51805;49.012;12.104;2022-11-02T02:53:17;98450.25;;;20.64;63.81
65227;BME280;51805;49.012;12.104;2022-11-02T02:55:45;98444.84;;;20.64;63.60
65227;BME280;51805;49.012;12.104;2022-11-02T02:58:18;98439.13;;;20.61;63.60
65227;BME280;51805;49.012;12.104;2022-11-02T03:00:44;98449.44;;;20.64;63.79
65227;BME280;51805;49.012;12.104;2022-11-02T03:03:16;98449.69;;;20.62;63.74
65227;BME280;51805;49.012;12.104;2022-11-02T03:05:42;98446.19;;;20.62;63.77
65227;BME280;51805;49.012;12.104;2022-11-02T03:08:14;98450.50;;;20.63;63.63
65227;BME280;51805;49.012;12.104;2022-11-02T03:10:58;98441.81;;;20.56;63.73
65227;BME280;51805;49.012;12.104;2022-11-02T03:16:01;98453.22;;;20.63;63.54
65227;BME280;51805;49.012;12.104;2022-11-02T03:18:40;98449.94;;;20.61;63.59
65227;BME280;51805;49.012;12.104;2022-11-02T03:21:24;98429.88;;;20.52;63.61
65227;BME280;51805;49.012;12.104;2022-11-02T03:24:19;98448.06;;;20.61;63.60
65227;BME280;51805;49.012;12.104;2022-11-02T03:27:00;98449.94;;;20.61;63.49
65227;BME280;51805;49.012;12.104;2022-11-02T03:29:48;98445.00;;;20.53;63.52
65227;BME280;51805;49.012;12.104;2022-11-02T03:32:24;98452.91;;;20.59;63.62
65227;BME280;51805;49.012;12.104;2022-11-02T03:34:56;98464.53;;;20.60;63.55
65227;BME280;51805;49.012;12.104;2022-11-02T03:37:36;98466.13;;;20.61;63.46
65227;BME280;51805;49.012;12.104;2022-11-02T03:40:10;98464.19;;;20.56;63.48
65227;BME280;51805;49.012;12.104;2022-11-02T03:42:38;98474.50;;;20.59;63.80
65227;BME280;51805;49.012;12.104;2022-11-02T03:45:09;98476.41;;;20.59;63.52
65227;BME280;51805;49.012;12.104;2022-11-02T03:47:37;98469.06;;;20.54;63.48
65227;BME280;51805;49.012;12.104;2022-11-02T03:50:06;98477.19;;;20.59;63.56
65227;BME280;51805;49.012;12.104;2022-11-02T03:52:34;98479.09;;;20.59;63.53
65227;BME280;51805;49.012;12.104;2022-11-02T03:55:03;98476.16;;;20.60;63.56
65227;BME280;51805;49.012;12.104;2022-11-02T03:57:35;98470.44;;;20.57;63.41
65227;BME280;51805;49.012;12.104;2022-11-02T04:00:06;98472.06;;;20.58;63.15
65227;BME280;51805;49.012;12.104;2022-11-02T04:02:35;98468.56;;;20.57;63.35
65227;BME280;51805;49.012;12.104;2022-11-02T04:05:01;98468.00;;;20.55;63.34
65227;BME280;51805;49.012;12.104;2022-11-02T04:07:31;98467.16;;;20.55;63.42
65227;BME280;51805;49.012;12.104;2022-11-02T04:09:57;98471.25;;;20.57;63.09
65227;BME280;51805;49.012;12.104;2022-11-02T04:12:22;98472.56;;;20.55;63.22
65227;BME280;51805;49.012;12.104;2022-11-02T04:14:48;98470.38;;;20.52;63.24
65227;BME280;51805;49.012;12.104;2022-11-02T04:17:13;98475.84;;;20.57;63.35
65227;BME280;51805;49.012;12.104;2022-11-02T04:19:38;98475.84;;;20.57;63.34
65227;BME280;51805;49.012;12.104;2022-11-02T04:22:03;98477.97;;;20.55;63.34
65227;BME280;51805;49.012;12.104;2022-11-02T04:24:29;98480.16;;;20.58;63.23
65227;BME280;51805;49.012;12.104;2022-11-02T04:26:54;98493.66;;;20.58;63.11
65227;BME280;51805;49.012;12.104;2022-11-02T04:29:19;98487.66;;;20.51;63.11
65227;BME280;51805;49.012;12.104;2022-11-02T04:31:44;98490.88;;;20.53;62.99
65227;BME280;51805;49.012;12.104;2022-11-02T04:34:10;98492.53;;;20.54;63.22
65227;BME280;51805;49.012;12.104;2022-11-02T04:36:35;98493.84;;;20.51;63.09
65227;BME280;51805;49.012;12.104;2022-11-02T04:39:00;98501.22;;;20.56;63.06
65227;BME280;51805;49.012;12.104;2022-11-02T04:41:26;98506.63;;;20.56;63.19
65227;BME280;51805;49.012;12.104;2022-11-02T04:43:52;98496.28;;;20.53;63.13
65227;BME280;51805;49.012;12.104;2022-11-02T04:46:18;98499.56;;;20.55;63.07
65227;BME280;51805;49.012;12.104;2022-11-02T04:48:43;98502.50;;;20.53;63.10
65227;BME280;51805;49.012;12.104;2022-11-02T04:51:08;98496.53;;;20.51;63.09
65227;BME280;51805;49.012;12.104;2022-11-02T04:53:33;98511.19;;;20.55;63.01
65227;BME280;51805;49.012;12.104;2022-11-02T04:55:59;98508.50;;;20.55;62.92
65227;BME280;51805;49.012;12.104;2022-11-02T04:58:24;98501.69;;;20.53;62.91
65227;BME280;51805;49.012;12.104;2022-11-02T05:00:49;98500.13;;;20.57;63.08
65227;BME280;51805;49.012;12.104;2022-11-02T05:03:14;98507.66;;;20.55;62.81
65227;BME280;51805;49.012;12.104;2022-11-02T05:05:40;98494.16;;;20.55;62.86
65227;BME280;51805;49.012;12.104;2022-11-02T05:08:05;98461.53;;;20.35;63.04
65227;BME280;51805;49.012;12.104;2022-11-02T05:10:30;98489.53;;;20.50;63.34
65227;BME280;51805;49.012;12.104;2022-11-02T05:12:56;98490.66;;;20.54;63.61
65227;BME280;51805;49.012;12.104;2022-11-02T05:15:22;98479.63;;;20.56;63.67
65227;BME280;51805;49.012;12.104;2022-11-02T05:17:47;98483.88;;;20.52;63.95
65227;BME280;51805;49.012;12.104;2022-11-02T05:20:13;98479.63;;;20.56;63.98
65227;BME280;51805;49.012;12.104;2022-11-02T05:22:40;98484.50;;;20.59;63.98
65227;BME280;51805;49.012;12.104;2022-11-02T05:25:06;98480.09;;;20.53;64.16
65227;BME280;51805;49.012;12.104;2022-11-02T05:27:31;98485.50;;;20.53;64.19
65227;BME280;51805;49.012;12.104;2022-11-02T05:29:57;98493.97;;;20.61;64.16
65227;BME280;51805;49.012;12.104;2022-11-02T05:32:22;98492.84;;;20.57;64.04
65227;BME280;51805;49.012;12.104;2022-11-02T05:34:47;98510.50;;;20.65;63.99
65227;BME280;51805;49.012;12.104;2022-11-02T05:37:12;98510.16;;;20.61;64.31
65227;BME280;51805;49.012;12.104;2022-11-02T05:39:38;98517.50;;;20.66;64.13
65227;BME280;51805;49.012;12.104;2022-11-02T05:42:03;98515.13;;;20.69;64.31
65227;BME280;51805;49.012;12.104;2022-11-02T05:44:28;98513.72;;;20.67;64.12
65227;BME280;51805;49.012;12.104;2022-11-02T05:46:53;98517.00;;;20.69;64.35
65227;BME280;51805;49.012;12.104;2022-11-02T05:49:19;98518.38;;;20.71;64.35
65227;BME280;51805;49.012;12.104;2022-11-02T05:51:44;98517.56;;;20.71;64.33
65227;BME280;51805;49.012;12.104;2022-11-02T05:54:09;98526.78;;;20.75;64.43
65227;BME280;51805;49.012;12.104;2022-11-02T05:56:35;98539.25;;;20.76;64.37
65227;BME280;51805;49.012;12.104;2022-11-02T05:59:00;98526.19;;;20.68;64.36
65227;BME280;51805;49.012;12.104;2022-11-02T06:01:25;98540.28;;;20.75;64.33
65227;BME280;51805;49.012;12.104;2022-11-02T06:03:50;98540.28;;;20.75;64.36
65227;BME280;51805;49.012;12.104;2022-11-02T06:06:16;98537.00;;;20.68;64.36
65227;BME280;51805;49.012;12.104;2022-11-02T06:08:41;98552.19;;;20.74;64.46
65227;BME280;51805;49.012;12.104;2022-11-02T06:11:13;98551.03;;;20.70;64.26
65227;BME280;51805;49.012;12.104;2022-11-02T06:13:39;98547.53;;;20.69;64.53
65227;BME280;51805;49.012;12.104;2022-11-02T06:16:07;98557.06;;;20.77;64.33
65227;BME280;51805;49.012;12.104;2022-11-02T06:18:32;98550.53;;;20.73;64.45
65227;BME280;51805;49.012;12.104;2022-11-02T06:20:58;98541.81;;;20.66;64.37
65227;BME280;51805;49.012;12.104;2022-11-02T06:23:24;98549.47;;;20.74;64.16
65227;BME280;51805;49.012;12.104;2022-11-02T06:25:54;98548.91;;;20.72;64.31
65227;BME280;51805;49.012;12.104;2022-11-02T06:28:20;98566.72;;;20.73;64.35
65227;BME280;51805;49.012;12.104;2022-11-02T06:30:46;98573.22;;;20.72;64.43
65227;BME280;51805;49.012;12.104;2022-11-02T06:33:12;98579.69;;;20.71;64.29
65227;BME280;51805;49.012;12.104;2022-11-02T06:35:37;98574.47;;;20.64;64.27
65227;BME280;51805;49.012;12.104;2022-11-02T06:38:02;98578.03;;;20.70;64.34
65227;BME280;51805;49.012;12.104;2022-11-02T06:40:28;98562.84;;;20.64;64.21
65227;BME280;51805;49.012;12.104;2022-11-02T06:42:57;98576.94;;;20.66;64.30
65227;BME280;51805;49.012;12.104;2022-11-02T06:45:25;98571.22;;;20.62;64.47
65227;BME280;51805;49.012;12.104;2022-11-02T06:47:50;98580.19;;;20.68;64.23
65227;BME280;51805;49.012;12.104;2022-11-02T06:50:15;98585.59;;;20.68;64.33
65227;BME280;51805;49.012;12.104;2022-11-02T06:52:42;98583.16;;;20.66;64.18
65227;BME280;51805;49.012;12.104;2022-11-02T06:55:08;98587.72;;;20.66;64.21
65227;BME280;51805;49.012;12.104;2022-11-02T06:57:36;98588.75;;;20.60;64.10
65227;BME280;51805;49.012;12.104;2022-11-02T07:00:07;98584.97;;;20.61;63.77
65227;BME280;51805;49.012;12.104;2022-11-02T07:02:32;98580.91;;;20.58;64.29
65227;BME280;51805;49.012;12.104;2022-11-02T07:04:58;98590.88;;;20.58;64.03
65227;BME280;51805;49.012;12.104;2022-11-02T07:07:23;98621.75;;;20.67;64.07
65227;BME280;51805;49.012;12.104;2022-11-02T07:09:48;98608.41;;;20.55;64.08
65227;BME280;51805;49.012;12.104;2022-11-02T07:12:14;98627.16;;;20.67;63.95
65227;BME280;51805;49.012;12.104;2022-11-02T07:14:39;98631.53;;;20.68;64.05
65227;BME280;51805;49.012;12.104;2022-11-02T07:17:04;98627.66;;;20.64;64.19
65227;BME280;51805;49.012;12.104;2022-11-02T07:19:29;98634.22;;;20.68;63.96
65227;BME280;51805;49.012;12.104;2022-11-02T07:21:55;98634.22;;;20.68;63.98
65227;BME280;51805;49.012;12.104;2022-11-02T07:24:20;98634.66;;;20.60;63.85
65227;BME280;51805;49.012;12.104;2022-11-02T07:26:49;98644.69;;;20.64;64.10
65227;BME280;51805;49.012;12.104;2022-11-02T07:29:17;98650.94;;;20.65;63.70
65227;BME280;51805;49.012;12.104;2022-11-02T07:31:43;98631.88;;;20.55;63.90
65227;BME280;51805;49.012;12.104;2022-11-02T07:34:08;98648.78;;;20.67;64.14
65227;BME280;51805;49.012;12.104;2022-11-02T07:36:34;98631.38;;;20.58;63.75
65227;BME280;51805;49.012;12.104;2022-11-02T07:38:59;98645.03;;;20.68;63.78
65227;BME280;51805;49.012;12.104;2022-11-02T07:41:25;98643.88;;;20.64;63.95
65227;BME280;51805;49.012;12.104;2022-11-02T07:43:50;98634.06;;;20.58;63.72
65227;BME280;51805;49.012;12.104;2022-11-02T07:46:15;98658.28;;;20.69;63.76
65227;BME280;51805;49.012;12.104;2022-11-02T07:48:40;98654.75;;;20.69;63.64
65227;BME280;51805;49.012;12.104;2022-11-02T07:51:06;98643.13;;;20.68;63.65
65227;BME280;51805;49.012;12.104;2022-11-02T07:53:31;98640.63;;;20.62;63.62
65227;BME280;51805;49.012;12.104;2022-11-02T07:56:07;98633.28;;;20.57;63.54
65227;BME280;51805;49.012;12.104;2022-11-02T07:58:33;98628.16;;;20.61;63.42
65227;BME280;51805;49.012;12.104;2022-11-02T08:00:59;98581.31;;;20.29;63.33
65227;BME280;51805;49.012;12.104;2022-11-02T08:03:25;98653.81;;;20.80;63.69
65227;BME280;51805;49.012;12.104;2022-11-02T08:05:50;98647.84;;;20.78;63.48
65227;BME280;51805;49.012;12.104;2022-11-02T08:08:22;98633.53;;;20.77;63.22
65227;BME280;51805;49.012;12.104;2022-11-02T08:10:49;98632.13;;;20.75;63.11
65227;BME280;51805;49.012;12.104;2022-11-02T08:13:17;98650.19;;;20.91;63.11
65227;BME280;51805;49.012;12.104;2022-11-02T08:15:43;98630.59;;;20.79;63.19
65227;BME280;51805;49.012;12.104;2022-11-02T08:18:13;98659.41;;;20.95;63.10
65227;BME280;51805;49.012;12.104;2022-11-02T08:20:39;98658.38;;;20.96;63.24
65227;BME280;51805;49.012;12.104;2022-11-02T08:23:05;98650.81;;;20.98;62.95
65227;BME280;51805;49.012;12.104;2022-11-02T08:25:31;98631.78;;;20.88;63.06
65227;BME280;51805;49.012;12.104;2022-11-02T08:27:57;98653.59;;;21.03;63.04
65227;BME280;51805;49.012;12.104;2022-11-02T08:30:24;98650.94;;;21.08;62.89
65227;BME280;51805;49.012;12.104;2022-11-02T08:32:49;98647.16;;;21.09;62.98
65227;BME280;51805;49.012;12.104;2022-11-02T08:35:14;98630.03;;;20.98;62.98
65227;BME280;51805;49.012;12.104;2022-11-02T08:37:40;98628.19;;;21.04;63.00
65227;BME280;51805;49.012;12.104;2022-11-02T08:40:05;98642.28;;;21.06;63.02
65227;BME280;51805;49.012;12.104;2022-11-02T08:42:31;98636.88;;;21.06;63.18
65227;BME280;51805;49.012;12.104;2022-11-02T08:44:56;98607.50;;;20.93;63.18
65227;BME280;51805;49.012;12.104;2022-11-02T08:47:21;98634.75;;;21.08;63.07
65227;BME280;51805;49.012;12.104;2022-11-02T08:49:47;98602.59;;;20.90;63.33
65227;BME280;51805;49.012;12.104;2022-11-02T08:52:12;98627.69;;;21.07;63.15
65227;BME280;51805;49.012;12.104;2022-11-02T08:54:37;98610.84;;;21.00;63.25
65227;BME280;51805;49.012;12.104;2022-11-02T08:57:03;98574.41;;;20.81;63.16
65227;BME280;51805;49.012;12.104;2022-11-02T08:59:28;98620.72;;;21.11;63.41
65227;BME280;51805;49.012;12.104;2022-11-02T09:01:53;98639.47;;;21.22;63.16
65227;BME280;51805;49.012;12.104;2022-11-02T09:04:18;98583.94;;;20.88;63.33
65227;BME280;51805;49.012;12.104;2022-11-02T09:06:44;98638.44;;;21.23;63.44
65227;BME280;51805;49.012;12.104;2022-11-02T09:09:09;98639.47;;;21.22;63.52
65227;BME280;51805;49.012;12.104;2022-11-02T09:11:34;98628.13;;;21.20;63.67
65227;BME280;51805;49.012;12.104;2022-11-02T09:13:59;98613.63;;;21.05;63.54
65227;BME280;51805;49.012;12.104;2022-11-02T09:16:25;98644.69;;;21.29;63.80
65227;BME280;51805;49.012;12.104;2022-11-02T09:18:51;98628.41;;;21.24;63.86
65227;BME280;51805;49.012;12.104;2022-11-02T09:21:16;98625.97;;;21.22;63.77
65227;BME280;51805;49.012;12.104;2022-11-02T09:23:42;98632.75;;;21.25;63.82
65227;BME280;51805;49.012;12.104;2022-11-02T09:26:08;98632.25;;;21.28;63.76
65227;BME280;51805;49.012;12.104;2022-11-02T09:28:33;98631.94;;;21.24;63.85
65227;BME280;51805;49.012;12.104;2022-11-02T09:30:58;98631.69;;;21.26;63.93
65227;BME280;51805;49.012;12.104;2022-11-02T09:33:23;98621.44;;;21.28;64.17
65227;BME280;51805;49.012;12.104;2022-11-02T09:35:49;98631.16;;;21.29;63.86
65227;BME280;51805;49.012;12.104;2022-11-02T09:38:15;98623.31;;;21.27;64.11
65227;BME280;51805;49.012;12.104;2022-11-02T09:40:44;98602.72;;;21.21;64.05
65227;BME280;51805;49.012;12.104;2022-11-02T09:46:19;98617.72;;;21.34;64.15
65227;BME280;51805;49.012;12.104;2022-11-02T09:49:10;98625.00;;;21.33;64.08
65227;BME280;51805;49.012;12.104;2022-11-02T09:51:49;98627.69;;;21.33;64.19
65227;BME280;51805;49.012;12.104;2022-11-02T09:54:26;98592.00;;;21.05;64.29
65227;BME280;51805;49.012;12.104;2022-11-02T09:57:00;98606.69;;;21.14;64.19
65227;BME280;51805;49.012;12.104;2022-11-02T09:59:28;98623.00;;;21.24;64.19
65227;BME280;51805;49.012;12.104;2022-11-02T10:02:03;98619.75;;;21.22;64.15
65227;BME280;51805;49.012;12.104;2022-11-02T10:04:54;98632.50;;;21.26;64.21
65227;BME280;51805;49.012;12.104;2022-11-02T10:07:31;98618.63;;;21.18;64.35
65227;BME280;51805;49.012;12.104;2022-11-02T10:16:12;98633.09;;;21.33;64.20
65227;BME280;51805;49.012;12.104;2022-11-02T10:18:40;98618.16;;;21.26;64.25
65227;BME280;51805;49.012;12.104;2022-11-02T10:21:11;98621.47;;;21.33;64.23
65227;BME280;51805;49.012;12.104;2022-11-02T10:26:33;98626.94;;;21.38;64.07
65227;BME280;51805;49.012;12.104;2022-11-02T10:29:14;98630.47;;;21.38;64.13
65227;BME280;51805;49.012;12.104;2022-11-02T10:31:41;98604.44;;;21.32;64.22
65227;BME280;51805;49.012;12.104;2022-11-02T10:45:06;98618.94;;;21.48;63.97
65227;BME280;51805;49.012;12.104;2022-11-02T10:47:55;98620.25;;;21.45;63.98
65227;BME280;51805;49.012;12.104;2022-11-02T10:50:46;98606.38;;;21.37;63.92
65227;BME280;51805;49.012;12.104;2022-11-02T10:53:15;98618.81;;;21.38;63.98
65227;BME280;51805;49.012;12.104;2022-11-02T10:55:57;98620.34;;;21.29;64.23
65227;BME280;51805;49.012;12.104;2022-11-02T10:58:26;98624.44;;;21.31;64.23
65227;BME280;51805;49.012;12.104;2022-11-02T11:01:04;98630.66;;;21.32;64.16
65227;BME280;51805;49.012;12.104;2022-11-02T11:03:29;98626.28;;;21.26;64.19
65227;BME280;51805;49.012;12.104;2022-11-02T11:05:58;98630.59;;;21.27;64.23
65227;BME280;51805;49.012;12.104;2022-11-02T11:08:37;98638.44;;;21.28;64.38
65227;BME280;51805;49.012;12.104;2022-11-02T11:13:57;98640.88;;;21.25;64.10
65227;BME280;51805;49.012;12.104;2022-11-02T11:16:38;98621.31;;;21.18;64.22
65227;BME280;51805;49.012;12.104;2022-11-02T11:21:49;98620.28;;;21.19;64.33
65227;BME280;51805;49.012;12.104;2022-11-02T11:26:44;98625.69;;;21.19;64.06
65227;BME280;51805;49.012;12.104;2022-11-02T11:29:21;98625.69;;;21.19;64.19
65227;BME280;51805;49.012;12.104;2022-11-02T11:31:46;98629.44;;;21.18;64.40
65227;BME280;51805;49.012;12.104;2022-11-02T11:34:22;98644.63;;;21.24;64.17
65227;BME280;51805;49.012;12.104;2022-11-02T11:36:48;98635.47;;;21.25;64.27
65227;BME280;51805;49.012;12.104;2022-11-02T11:39:26;98626.19;;;21.16;64.25
65227;BME280;51805;49.012;12.104;2022-11-02T11:41:53;98592.78;;;21.00;63.97
65227;BME280;51805;49.012;12.104;2022-11-02T11:44:20;98623.00;;;21.24;64.18
65227;BME280;51805;49.012;12.104;2022-11-02T11:46:55;98608.69;;;21.23;64.03
65227;BME280;51805;49.012;12.104;2022-11-02T11:49:35;98617.91;;;21.27;64.18
65227;BME280;51805;49.012;12.104;2022-11-02T11:52:03;98602.50;;;21.28;63.96
65227;BME280;51805;49.012;12.104;2022-11-02T11:54:30;98607.44;;;21.36;64.13
65227;BME280;51805;49.012;12.104;2022-11-02T12:02:22;98576.19;;;21.18;64.30
65227;BME280;51805;49.012;12.104;2022-11-02T12:04:48;98584.38;;;21.28;64.15
65227;BME280;51805;49.012;12.104;2022-11-02T12:07:31;98604.53;;;21.42;64.16
65227;BME280;51805;49.012;12.104;2022-11-02T12:12:49;98617.28;;;21.47;64.33
65227;BME280;51805;49.012;12.104;2022-11-02T12:18:32;98607.59;;;21.51;64.43
65227;BME280;51805;49.012;12.104;2022-11-02T12:21:12;98602.19;;;21.51;64.31
65227;BME280;51805;49.012;12.104;2022-11-02T12:27:06;98607.09;;;21.54;64.31
65227;BME280;51805;49.012;12.104;2022-11-02T12:29:56;98612.22;;;21.56;64.12
65227;BME280;51805;49.012;12.104;2022-11-02T12:43:41;98605.75;;;21.57;64.42
65227;BME280;51805;49.012;12.104;2022-11-02T12:46:30;98600.59;;;21.55;64.26
65227;BME280;51805;49.012;12.104;2022-11-02T12:51:53;98580.44;;;21.41;64.29
65227;BME280;51805;49.012;12.104;2022-11-02T12:54:28;98591.31;;;21.46;64.55
65227;BME280;51805;49.012;12.104;2022-11-02T12:56:55;98606.25;;;21.54;64.39
65227;BME280;51805;49.012;12.104;2022-11-02T12:59:23;98610.84;;;21.53;64.59
65227;BME280;51805;49.012;12.104;2022-11-02T13:02:01;98610.84;;;21.53;64.48
65227;BME280;51805;49.012;12.104;2022-11-02T13:04:31;98609.22;;;21.52;64.51
65227;BME280;51805;49.012;12.104;2022-11-02T13:07:02;98610.84;;;21.53;64.53
65227;BME280;51805;49.012;12.104;2022-11-02T13:09:32;98608.13;;;21.53;64.89
65227;BME280;51805;49.012;12.104;2022-11-02T13:12:09;98607.63;;;21.56;64.53
65227;BME280;51805;49.012;12.104;2022-11-02T13:14:39;98607.09;;;21.54;64.51
65227;BME280;51805;49.012;12.104;2022-11-02T13:17:11;98604.44;;;21.59;64.69
65227;BME280;51805;49.012;12.104;2022-11-02T13:22:20;98603.88;;;21.57;64.52
65227;BME280;51805;49.012;12.104;2022-11-02T13:24:52;98593.81;;;21.53;64.56
65227;BME280;51805;49.012;12.104;2022-11-02T13:27:29;98582.13;;;21.47;64.39
65227;BME280;51805;49.012;12.104;2022-11-02T13:29:58;98584.09;;;21.57;64.62
65227;BME280;51805;49.012;12.104;2022-11-02T13:32:35;98577.84;;;21.51;64.44
65227;BME280;51805;49.012;12.104;2022-11-02T13:35:19;98581.66;;;21.55;64.67
65227;BME280;51805;49.012;12.104;2022-11-02T13:37:48;98587.94;;;21.61;64.56
65227;BME280;51805;49.012;12.104;2022-11-02T13:40:23;98568.66;;;21.52;64.47
65227;BME280;51805;49.012;12.104;2022-11-02T13:50:11;98594.16;;;21.61;64.58
65227;BME280;51805;49.012;12.104;2022-11-02T13:52:48;98594.16;;;21.61;64.54
65227;BME280;51805;49.012;12.104;2022-11-02T13:55:22;98576.56;;;21.59;64.61
65227;BME280;51805;49.012;12.104;2022-11-02T13:57:56;98582.22;;;21.57;64.43
65227;BME280;51805;49.012;12.104;2022-11-02T14:02:49;98578.69;;;21.57;64.33
65227;BME280;51805;49.012;12.104;2022-11-02T14:05:28;98577.91;;;21.61;64.19
65227;BME280;51805;49.012;12.104;2022-11-02T14:07:59;98580.63;;;21.61;64.10
65227;BME280;51805;49.012;12.104;2022-11-02T14:10:26;98577.91;;;21.61;64.07
65227;BME280;51805;49.012;12.104;2022-11-02T14:12:52;98576.88;;;21.62;64.04
65227;BME280;51805;49.012;12.104;2022-11-02T14:25:53;98569.28;;;21.64;63.82
65227;BME280;51805;49.012;12.104;2022-11-02T14:30:45;98563.88;;;21.64;63.88
65227;BME280;51805;49.012;12.104;2022-11-02T14:35:55;98552.78;;;21.61;64.09
65227;BME280;51805;49.012;12.104;2022-11-02T14:43:48;98555.75;;;21.64;64.07
65227;BME280;51805;49.012;12.104;2022-11-02T14:46:42;98565.53;;;21.65;64.02